createdAt,value
2018-12-10T00:00:00.173Z,108.93
2018-12-10T00:02:28.753Z,93.83
2018-12-10T00:04:57.457Z,97.87
2018-12-10T00:07:27.144Z,86.40
2018-12-10T00:09:55.700Z,86.83
2018-12-10T00:12:24.234Z,88.10
2018-12-10T00:14:52.778Z,85.33
2018-12-10T00:17:21.695Z,87.10
2018-12-10T00:19:50.378Z,83.70
2018-12-10T00:22:19.384Z,84.57
2018-12-10T00:24:47.906Z,84.13
2018-12-10T00:27:16.417Z,80.53
2018-12-10T00:29:44.928Z,84.90
2018-12-10T00:32:13.692Z,77.03
2018-12-10T00:34:42.222Z,73.17
2018-12-10T00:37:10.878Z,61.53
2018-12-10T00:39:39.408Z,55.37
2018-12-10T00:42:07.587Z,54.87
2018-12-10T00:44:35.883Z,62.40
2018-12-10T00:47:04.519Z,56.93
2018-12-10T00:49:33.068Z,65.80
2018-12-10T00:52:01.575Z,65.33
2018-12-10T00:54:30.142Z,74.43
2018-12-10T00:56:58.794Z,83.67
2018-12-10T00:59:27.499Z,79.70
2018-12-10T01:01:56.068Z,71.53
2018-12-10T01:04:25.063Z,88.70
2018-12-10T01:06:53.606Z,91.83
2018-12-10T01:09:23.351Z,94.47
2018-12-10T01:11:52.215Z,100.77
2018-12-10T01:14:20.635Z,98.53
2018-12-10T01:16:49.370Z,100.33
2018-12-10T01:19:17.930Z,100.50
2018-12-10T01:21:46.556Z,111.23
2018-12-10T01:24:15.489Z,109.60
2018-12-10T01:26:44.432Z,109.80
2018-12-10T01:29:13.720Z,101.17
2018-12-10T01:31:43.239Z,99.53
2018-12-10T01:34:12.653Z,102.27
2018-12-10T01:36:41.171Z,107.97
2018-12-10T01:39:10.635Z,102.53
2018-12-10T01:41:39.312Z,91.23
2018-12-10T01:44:07.809Z,68.70
2018-12-10T01:46:36.554Z,62.97
2018-12-10T01:49:05.032Z,68.53
2018-12-10T01:51:33.222Z,55.90
2018-12-10T01:54:01.831Z,68.53
2018-12-10T01:56:30.900Z,82.57
2018-12-10T01:58:59.802Z,80.47
2018-12-10T02:01:28.298Z,80.90
2018-12-10T02:03:56.820Z,79.93
2018-12-10T02:06:25.267Z,76.37
2018-12-10T02:08:53.768Z,80.00
2018-12-10T02:11:22.393Z,86.37
2018-12-10T02:13:50.935Z,106.67
2018-12-10T02:16:19.482Z,103.27
2018-12-10T02:18:48.020Z,99.53
2018-12-10T02:21:16.501Z,101.53
2018-12-10T02:23:46.472Z,99.97
2018-12-10T02:26:15.079Z,102.50
2018-12-10T02:28:49.125Z,103.07
2018-12-10T02:31:17.709Z,117.23
2018-12-10T02:33:47.203Z,98.07
2018-12-10T02:36:16.014Z,95.90
2018-12-10T02:38:44.508Z,97.47
2018-12-10T02:41:13.048Z,94.27
2018-12-10T02:43:41.632Z,149.93
2018-12-10T02:46:10.353Z,154.17
2018-12-10T02:48:39.032Z,106.53
2018-12-10T02:51:08.244Z,137.30
2018-12-10T02:53:36.785Z,127.23
2018-12-10T02:56:05.318Z,137.93
2018-12-10T02:58:35.295Z,95.33
2018-12-10T03:01:04.435Z,71.20
2018-12-10T03:03:32.901Z,90.23
2018-12-10T03:06:02.077Z,75.07
2018-12-10T03:08:30.648Z,125.93
2018-12-10T03:10:59.398Z,72.13
2018-12-10T03:13:28.844Z,85.00
2018-12-10T03:15:57.434Z,99.33
2018-12-10T03:18:25.929Z,84.43
2018-12-10T03:20:54.742Z,100.97
2018-12-10T03:23:23.342Z,76.10
2018-12-10T03:25:51.832Z,81.00
2018-12-10T03:28:20.887Z,88.13
2018-12-10T03:30:49.343Z,71.33
2018-12-10T03:33:17.828Z,80.27
2018-12-10T03:35:47.311Z,76.23
2018-12-10T03:38:15.820Z,77.10
2018-12-10T03:40:44.354Z,71.87
2018-12-10T03:43:13.320Z,77.37
2018-12-10T03:45:42.515Z,69.40
2018-12-10T03:48:12.007Z,69.77
2018-12-10T03:50:40.891Z,72.97
2018-12-10T03:53:09.545Z,75.70
2018-12-10T03:55:38.267Z,79.63
2018-12-10T03:58:06.832Z,81.20
2018-12-10T04:00:35.449Z,78.07
2018-12-10T04:03:03.940Z,78.90
2018-12-10T04:05:33.186Z,79.30
2018-12-10T04:08:01.768Z,75.63
2018-12-10T04:10:30.356Z,85.77
2018-12-10T04:12:59.962Z,88.03
2018-12-10T04:15:28.847Z,83.37
2018-12-10T04:17:57.336Z,81.27
2018-12-10T04:20:27.325Z,105.37
2018-12-10T04:22:55.945Z,99.00
2018-12-10T04:25:24.561Z,94.47
2018-12-10T04:27:53.096Z,103.57
2018-12-10T04:30:23.332Z,84.50
2018-12-10T04:32:51.806Z,80.90
2018-12-10T04:35:21.150Z,73.80
2018-12-10T04:37:49.758Z,70.43
2018-12-10T04:40:18.576Z,70.33
2018-12-10T04:42:47.283Z,67.43
2018-12-10T04:45:15.843Z,83.27
2018-12-10T04:47:44.346Z,83.30
2018-12-10T04:50:13.217Z,80.27
2018-12-10T04:52:41.761Z,79.20
2018-12-10T04:55:10.405Z,81.23
2018-12-10T04:57:40.143Z,82.00
2018-12-10T05:00:08.907Z,88.93
2018-12-10T05:02:37.532Z,83.07
2018-12-10T05:05:07.044Z,82.93
2018-12-10T05:07:35.545Z,85.33
2018-12-10T05:10:04.927Z,83.83
2018-12-10T05:12:33.738Z,86.87
2018-12-10T05:15:04.024Z,84.30
2018-12-10T05:17:33.614Z,89.97
2018-12-10T05:20:02.421Z,91.23
2018-12-10T05:22:30.996Z,87.47
2018-12-10T05:25:00.172Z,83.50
2018-12-10T05:27:28.833Z,81.07
2018-12-10T05:29:57.396Z,85.93
2018-12-10T05:32:26.489Z,88.10
2018-12-10T05:34:55.086Z,83.90
2018-12-10T05:37:23.598Z,75.93
2018-12-10T05:39:52.195Z,72.53
2018-12-10T05:42:21.696Z,79.67
2018-12-10T05:44:50.244Z,89.03
2018-12-10T05:47:18.846Z,86.97
2018-12-10T05:49:47.371Z,78.97
2018-12-10T05:52:16.250Z,83.70
2018-12-10T05:54:44.696Z,80.67
2018-12-10T05:57:13.231Z,75.97
2018-12-10T05:59:41.775Z,83.70
2018-12-10T06:02:10.982Z,80.93
2018-12-10T06:04:39.607Z,81.30
2018-12-10T06:07:08.209Z,79.83
2018-12-10T06:09:36.734Z,73.90
2018-12-10T06:12:05.965Z,77.47
2018-12-10T06:14:34.446Z,76.10
2018-12-10T06:17:04.463Z,68.33
2018-12-10T06:19:33.434Z,73.67
2018-12-10T06:22:01.917Z,74.20
2018-12-10T06:24:30.427Z,78.20
2018-12-10T06:26:58.943Z,77.37
2018-12-10T06:29:27.574Z,70.57
2018-12-10T06:31:56.145Z,72.43
2018-12-10T06:34:24.832Z,69.90
2018-12-10T06:36:53.330Z,71.10
2018-12-10T06:39:21.876Z,69.57
2018-12-10T06:41:50.505Z,67.17
2018-12-10T06:44:19.023Z,63.17
2018-12-10T06:46:47.614Z,68.27
2018-12-10T06:49:16.257Z,66.23
2018-12-10T06:51:44.792Z,63.30
2018-12-10T06:54:13.801Z,65.00
2018-12-10T06:56:42.625Z,63.43
2018-12-10T06:59:11.145Z,64.67
2018-12-10T07:01:41.525Z,67.33
2018-12-10T07:04:10.187Z,69.73
2018-12-10T07:06:38.825Z,62.20
2018-12-10T07:09:07.623Z,60.97
2018-12-10T07:11:36.221Z,53.63
2018-12-10T07:14:05.767Z,68.27
2018-12-10T07:16:35.098Z,66.77
2018-12-10T07:19:05.195Z,66.60
2018-12-10T07:21:33.708Z,58.93
2018-12-10T07:24:02.206Z,65.13
2018-12-10T07:26:30.859Z,66.60
2018-12-10T07:28:59.561Z,63.10
2018-12-10T07:31:28.264Z,66.53
2018-12-10T07:33:56.747Z,64.23
2018-12-10T07:36:26.099Z,37.23
2018-12-10T07:38:54.589Z,68.83
2018-12-10T07:41:23.080Z,66.77
2018-12-10T07:43:51.700Z,75.37
2018-12-10T07:46:20.195Z,58.87
2018-12-10T07:48:48.673Z,64.47
2018-12-10T07:51:17.242Z,48.63
2018-12-10T07:53:45.727Z,60.03
2018-12-10T07:56:14.713Z,61.27
2018-12-10T07:58:43.194Z,59.00
2018-12-10T08:01:12.265Z,54.27
2018-12-10T08:03:40.996Z,56.83
2018-12-10T08:06:09.473Z,56.20
2018-12-10T08:08:38.029Z,51.40
2018-12-10T08:11:07.081Z,48.53
2018-12-10T08:13:35.551Z,41.63
2018-12-10T08:16:05.047Z,44.80
2018-12-10T08:18:34.360Z,46.40
2018-12-10T08:21:02.989Z,49.40
2018-12-10T08:23:32.250Z,41.73
2018-12-10T08:26:00.865Z,33.23
2018-12-10T08:28:29.843Z,47.63
2018-12-10T08:30:58.991Z,46.33
2018-12-10T08:33:27.786Z,47.53
2018-12-10T08:35:56.329Z,47.83
2018-12-10T08:38:25.137Z,50.47
2018-12-10T08:40:53.680Z,45.47
2018-12-10T08:43:22.172Z,45.70
2018-12-10T08:45:50.747Z,43.93
2018-12-10T08:48:19.586Z,46.57
2018-12-10T08:50:48.140Z,50.90
2018-12-10T08:53:16.643Z,45.73
2018-12-10T08:55:45.253Z,42.60
2018-12-10T08:58:14.169Z,37.93
2018-12-10T09:00:42.686Z,46.07
2018-12-10T09:03:11.161Z,49.17
2018-12-10T09:05:39.653Z,42.23
2018-12-10T09:08:08.161Z,56.70
2018-12-10T09:13:06.465Z,42.37
2018-12-10T09:15:34.940Z,38.33
2018-12-10T09:18:03.462Z,48.50
2018-12-10T09:20:31.997Z,48.57
2018-12-10T09:23:00.628Z,51.27
2018-12-10T09:25:29.214Z,40.97
2018-12-10T09:27:57.772Z,44.30
2018-12-10T09:30:26.260Z,39.73
2018-12-10T09:32:54.876Z,40.87
2018-12-10T09:35:23.523Z,42.53
2018-12-10T09:37:52.030Z,41.80
2018-12-10T09:40:21.411Z,42.30
2018-12-10T09:42:49.981Z,44.20
2018-12-10T09:45:18.539Z,41.83
2018-12-10T09:47:47.081Z,41.00
2018-12-10T09:50:15.610Z,42.00
2018-12-10T09:52:44.162Z,44.43
2018-12-10T09:55:12.746Z,43.67
2018-12-10T09:57:41.232Z,45.00
2018-12-10T10:00:11.097Z,44.97
2018-12-10T10:02:39.676Z,47.10
2018-12-10T10:05:08.548Z,43.00
2018-12-10T10:07:37.198Z,44.73
2018-12-10T10:10:06.693Z,44.67
2018-12-10T10:12:35.370Z,45.43
2018-12-10T10:15:04.234Z,47.47
2018-12-10T10:17:32.827Z,41.40
2018-12-10T10:20:01.348Z,41.10
2018-12-10T10:22:29.980Z,45.93
2018-12-10T10:24:58.853Z,39.70
2018-12-10T10:27:27.342Z,43.17
2018-12-10T10:29:55.994Z,45.70
2018-12-10T10:32:24.538Z,45.33
2018-12-10T10:34:53.031Z,38.73
2018-12-10T10:37:21.681Z,45.37
2018-12-10T10:39:51.222Z,49.17
2018-12-10T10:42:20.016Z,39.10
2018-12-10T10:44:48.526Z,43.97
2018-12-10T10:47:16.738Z,42.40
2018-12-10T10:49:45.482Z,43.97
2018-12-10T10:52:13.643Z,43.37
2018-12-10T10:54:42.170Z,45.07
2018-12-10T10:57:10.744Z,42.70
2018-12-10T10:59:39.251Z,41.27
2018-12-10T11:02:13.974Z,41.50
2018-12-10T11:04:42.182Z,39.77
2018-12-10T11:07:10.678Z,39.80
2018-12-10T11:09:39.236Z,41.63
2018-12-10T11:12:07.854Z,37.97
2018-12-10T11:14:36.434Z,39.13
2018-12-10T11:17:05.066Z,41.50
2018-12-10T11:19:33.701Z,33.27
2018-12-10T11:22:02.215Z,43.67
2018-12-10T11:24:30.961Z,41.73
2018-12-10T11:26:59.179Z,42.33
2018-12-10T11:29:27.342Z,46.17
2018-12-10T11:31:55.825Z,45.67
2018-12-10T11:34:24.034Z,28.37
2018-12-10T11:36:52.294Z,42.05
2018-12-10T11:39:20.616Z,37.13
2018-12-10T11:41:48.767Z,38.17
2018-12-10T11:44:17.439Z,37.07
2018-12-10T11:46:46.012Z,27.27
2018-12-10T11:49:14.618Z,40.87
2018-12-10T11:51:43.167Z,38.90
2018-12-10T11:54:11.982Z,41.20
2018-12-10T11:56:41.275Z,38.97
2018-12-10T11:59:09.828Z,39.43
2018-12-10T12:01:38.467Z,30.60
2018-12-10T12:04:07.070Z,38.83
2018-12-10T12:06:35.760Z,40.60
2018-12-10T12:09:06.208Z,44.57
2018-12-10T12:11:34.794Z,35.20
2018-12-10T12:14:03.474Z,40.60
2018-12-10T12:16:32.591Z,41.03
2018-12-10T12:19:01.302Z,44.10
2018-12-10T12:21:29.832Z,21.33
2018-12-10T12:23:58.345Z,39.57
2018-12-10T12:26:27.259Z,44.60
2018-12-10T12:28:56.533Z,42.40
2018-12-10T12:31:25.079Z,40.20
2018-12-10T12:33:53.512Z,41.30
2018-12-10T12:36:22.725Z,48.60
2018-12-10T12:38:51.318Z,40.60
2018-12-10T12:41:19.834Z,27.20
2018-12-10T12:43:48.361Z,43.53
2018-12-10T12:46:17.308Z,56.03
2018-12-10T12:48:45.789Z,41.57
2018-12-10T12:51:14.406Z,50.97
2018-12-10T12:53:43.310Z,46.57
2018-12-10T12:56:12.407Z,43.13
2018-12-10T12:58:41.171Z,27.37
2018-12-10T13:01:09.757Z,55.07
2018-12-10T13:03:38.378Z,49.90
2018-12-10T13:06:07.238Z,42.17
2018-12-10T13:08:35.892Z,42.47
2018-12-10T13:11:04.355Z,45.87
2018-12-10T13:13:32.854Z,44.47
2018-12-10T13:16:01.554Z,45.40
2018-12-10T13:18:30.184Z,41.50
2018-12-10T13:20:59.049Z,42.53
2018-12-10T13:23:28.247Z,52.60
2018-12-10T13:25:56.912Z,26.03
2018-12-10T13:28:25.624Z,46.23
2018-12-10T13:30:54.380Z,45.20
2018-12-10T13:33:22.955Z,46.17
2018-12-10T13:35:51.392Z,50.83
2018-12-10T13:38:19.946Z,53.77
2018-12-10T13:40:48.584Z,26.83
2018-12-10T13:43:18.126Z,51.97
2018-12-10T13:45:46.683Z,58.63
2018-12-10T13:48:15.467Z,56.77
2018-12-10T13:50:43.930Z,53.10
2018-12-10T13:53:12.679Z,41.47
2018-12-10T13:55:41.558Z,36.37
2018-12-10T13:58:10.047Z,63.80
2018-12-10T14:00:38.636Z,56.47
2018-12-10T14:03:07.593Z,59.37
2018-12-10T14:05:36.342Z,60.13
2018-12-10T14:08:04.928Z,38.87
2018-12-10T14:10:33.584Z,63.07
2018-12-10T14:13:02.077Z,55.10
2018-12-10T14:15:30.620Z,56.33
2018-12-10T14:17:59.335Z,60.57
2018-12-10T14:20:28.524Z,56.47
2018-12-10T14:22:57.851Z,55.27
2018-12-10T14:25:28.196Z,62.83
2018-12-10T14:27:56.721Z,61.73
2018-12-10T14:30:26.203Z,48.57
2018-12-10T14:32:55.716Z,33.97
2018-12-10T14:35:24.234Z,58.50
2018-12-10T14:37:54.063Z,62.53
2018-12-10T14:40:22.691Z,60.40
2018-12-10T14:42:53.024Z,35.73
2018-12-10T14:45:21.625Z,60.77
2018-12-10T14:47:53.623Z,57.60
2018-12-10T14:50:22.710Z,57.67
2018-12-10T14:52:51.673Z,37.00
2018-12-10T14:55:20.250Z,64.70
2018-12-10T14:57:48.758Z,63.97
2018-12-10T15:00:17.257Z,59.40
2018-12-10T15:02:45.772Z,43.43
2018-12-10T15:05:14.390Z,64.70
2018-12-10T15:07:42.921Z,61.23
2018-12-10T15:10:11.813Z,55.07
2018-12-10T15:12:40.406Z,48.27
2018-12-10T15:15:10.347Z,50.93
2018-12-10T15:17:39.328Z,60.37
2018-12-10T15:20:11.539Z,64.40
2018-12-10T15:22:40.013Z,50.50
2018-12-10T15:25:09.363Z,52.33
2018-12-10T15:27:38.879Z,55.50
2018-12-10T15:30:11.890Z,63.13
2018-12-10T15:32:41.467Z,55.77
2018-12-10T15:35:10.083Z,56.47
2018-12-10T15:37:38.579Z,53.23
2018-12-10T15:40:07.966Z,54.17
2018-12-10T15:42:36.475Z,56.47
2018-12-10T15:45:06.477Z,56.30
2018-12-10T15:47:35.013Z,56.97
2018-12-10T15:50:04.047Z,56.80
2018-12-10T15:52:32.773Z,59.57
2018-12-10T15:55:01.480Z,60.13
2018-12-10T15:57:30.049Z,61.00
2018-12-10T15:59:58.596Z,56.93
2018-12-10T16:02:28.166Z,67.70
2018-12-10T16:04:57.633Z,61.17
2018-12-10T16:07:26.158Z,67.13
2018-12-10T16:09:54.984Z,70.03
2018-12-10T16:12:23.539Z,60.70
2018-12-10T16:14:52.052Z,65.60
2018-12-10T16:17:20.634Z,65.50
2018-12-10T16:19:49.769Z,65.73
2018-12-10T16:22:18.250Z,76.03
2018-12-10T16:24:47.942Z,78.37
2018-12-10T16:27:17.189Z,73.93
2018-12-10T16:29:46.145Z,76.37
2018-12-10T16:32:15.605Z,69.00
2018-12-10T16:34:44.091Z,71.33
2018-12-10T16:37:13.148Z,75.67
2018-12-10T16:39:43.883Z,76.07
2018-12-10T16:42:12.483Z,74.10
2018-12-10T16:44:41.035Z,81.07
2018-12-10T16:47:09.700Z,79.53
2018-12-10T16:49:38.191Z,76.17
2018-12-10T16:52:06.749Z,77.13
2018-12-10T16:54:35.958Z,75.93
2018-12-10T16:57:04.608Z,73.37
2018-12-10T16:59:33.148Z,76.27
2018-12-10T17:02:01.664Z,80.03
2018-12-10T17:04:31.184Z,72.43
2018-12-10T17:07:01.111Z,80.93
2018-12-10T17:09:29.936Z,85.90
2018-12-10T17:11:58.803Z,74.43
2018-12-10T17:14:27.335Z,87.47
2018-12-10T17:16:55.894Z,83.17
2018-12-10T17:19:24.983Z,84.93
2018-12-10T17:21:53.553Z,79.00
2018-12-10T17:24:22.123Z,71.97
2018-12-10T17:26:50.909Z,63.10
2018-12-10T17:29:19.489Z,69.00
2018-12-10T17:31:48.096Z,59.77
2018-12-10T17:34:16.714Z,73.10
2018-12-10T17:36:45.770Z,79.33
2018-12-10T17:39:14.926Z,83.07
2018-12-10T17:41:44.819Z,80.80
2018-12-10T17:44:13.617Z,84.87
2018-12-10T17:46:42.390Z,86.33
2018-12-10T17:49:11.555Z,77.67
2018-12-10T17:51:40.047Z,72.10
2018-12-10T17:54:09.143Z,76.50
2018-12-10T17:56:37.842Z,76.70
2018-12-10T17:59:06.522Z,69.43
2018-12-10T18:01:35.197Z,73.53
2018-12-10T18:04:03.853Z,77.97
2018-12-10T18:06:32.341Z,84.43
2018-12-10T18:09:01.935Z,81.67
2018-12-10T18:11:30.511Z,88.47
2018-12-10T18:13:59.980Z,83.57
2018-12-10T18:16:29.308Z,83.17
2018-12-10T18:18:57.824Z,77.50
2018-12-10T18:21:26.621Z,79.70
2018-12-10T18:23:55.192Z,80.53
2018-12-10T18:26:23.828Z,80.27
2018-12-10T18:28:52.732Z,76.80
2018-12-10T18:31:21.461Z,77.50
2018-12-10T18:33:50.058Z,93.73
2018-12-10T18:36:18.313Z,94.07
2018-12-10T18:38:46.479Z,97.50
2018-12-10T18:41:14.707Z,100.70
2018-12-10T18:43:42.836Z,89.33
2018-12-10T18:46:11.585Z,94.73
2018-12-10T18:48:39.803Z,91.23
2018-12-10T18:51:08.014Z,92.40
2018-12-10T18:53:37.601Z,96.30
2018-12-10T18:56:06.128Z,103.83
2018-12-10T18:58:34.868Z,93.80
2018-12-10T19:01:03.450Z,91.87
2018-12-10T19:03:31.941Z,82.93
2018-12-10T19:06:00.475Z,86.63
2018-12-10T19:08:28.946Z,89.40
2018-12-10T19:10:57.523Z,83.83
2018-12-10T19:13:26.098Z,83.10
2018-12-10T19:15:55.910Z,80.43
2018-12-10T19:18:24.428Z,75.37
2018-12-10T19:20:53.427Z,71.97
2018-12-10T19:23:22.083Z,66.73
2018-12-10T19:25:50.728Z,62.07
2018-12-10T19:28:19.249Z,63.83
2018-12-10T19:30:47.992Z,60.73
2018-12-10T19:33:16.540Z,70.57
2018-12-10T19:35:45.094Z,67.83
2018-12-10T19:38:13.737Z,59.60
2018-12-10T19:40:42.224Z,61.60
2018-12-10T19:43:10.696Z,58.83
2018-12-10T19:45:39.207Z,67.73
2018-12-10T19:48:07.913Z,63.53
2018-12-10T19:50:36.584Z,59.40
2018-12-10T19:53:05.642Z,61.63
2018-12-10T19:55:34.131Z,65.83
2018-12-10T19:58:03.515Z,59.33
2018-12-10T20:00:32.681Z,56.77
2018-12-10T20:03:05.049Z,55.03
2018-12-10T20:05:37.168Z,55.03
2018-12-10T20:08:05.704Z,58.23
2018-12-10T20:10:34.527Z,66.43
2018-12-10T20:13:03.375Z,60.17
2018-12-10T20:15:32.348Z,58.70
2018-12-10T20:18:00.828Z,64.83
2018-12-10T20:20:29.432Z,63.77
2018-12-10T20:22:58.042Z,68.03
2018-12-10T20:25:26.571Z,72.47
2018-12-10T20:27:55.728Z,70.27
2018-12-10T20:30:24.344Z,67.90
2018-12-10T20:32:53.947Z,65.30
2018-12-10T20:35:23.071Z,68.27
2018-12-10T20:37:52.292Z,61.43
2018-12-10T20:40:21.006Z,62.60
2018-12-10T20:42:50.556Z,60.83
2018-12-10T20:45:19.064Z,63.47
2018-12-10T20:47:47.638Z,67.60
2018-12-10T20:50:16.180Z,66.37
2018-12-10T20:52:44.687Z,54.03
2018-12-10T20:55:13.206Z,51.07
2018-12-10T20:57:42.546Z,54.37
2018-12-10T21:00:11.307Z,60.97
2018-12-10T21:02:40.031Z,53.47
2018-12-10T21:05:08.805Z,52.20
2018-12-10T21:07:37.358Z,49.43
2018-12-10T21:10:06.792Z,55.23
2018-12-10T21:12:35.394Z,52.73
2018-12-10T21:15:04.708Z,50.43
2018-12-10T21:17:33.983Z,50.87
2018-12-10T21:20:02.539Z,43.17
2018-12-10T21:22:31.054Z,41.77
2018-12-10T21:25:00.807Z,39.07
2018-12-10T21:27:29.277Z,42.53
2018-12-10T21:29:59.214Z,43.60
2018-12-10T21:32:27.709Z,38.10
2018-12-10T21:34:57.875Z,34.43
2018-12-10T21:37:26.444Z,39.47
2018-12-10T21:39:54.938Z,40.60
2018-12-10T21:42:23.532Z,38.13
2018-12-10T21:44:52.031Z,39.73
2018-12-10T21:47:20.631Z,37.93
2018-12-10T21:49:49.390Z,36.70
2018-12-10T21:52:19.285Z,43.10
2018-12-10T21:54:47.859Z,36.20
2018-12-10T21:57:17.048Z,37.43
2018-12-10T21:59:45.592Z,39.53
2018-12-10T22:02:13.798Z,38.97
2018-12-10T22:04:42.299Z,38.63
2018-12-10T22:07:10.611Z,35.90
2018-12-10T22:09:38.861Z,42.83
2018-12-10T22:12:07.110Z,40.83
2018-12-10T22:14:35.520Z,41.47
2018-12-10T22:17:03.674Z,40.00
2018-12-10T22:19:31.925Z,41.47
2018-12-10T22:22:00.110Z,41.23
2018-12-10T22:24:28.392Z,40.70
2018-12-10T22:26:56.687Z,40.37
2018-12-10T22:29:24.848Z,38.47
2018-12-10T22:31:53.080Z,39.13
2018-12-10T22:34:21.723Z,44.33
2018-12-10T22:36:49.944Z,46.33
2018-12-10T22:39:18.817Z,42.53
2018-12-10T22:41:47.070Z,43.73
2018-12-10T22:44:15.405Z,44.30
2018-12-10T22:46:43.595Z,44.73
2018-12-10T22:49:11.794Z,47.80
2018-12-10T22:51:40.079Z,46.17
2018-12-10T22:54:08.587Z,46.73
2018-12-10T22:56:37.317Z,44.77
2018-12-10T22:59:05.484Z,45.30
2018-12-10T23:01:33.706Z,43.23
2018-12-10T23:04:03.086Z,46.97
2018-12-10T23:06:31.473Z,44.00
2018-12-10T23:08:59.674Z,45.30
2018-12-10T23:11:27.901Z,47.27
2018-12-10T23:13:56.120Z,45.00
2018-12-10T23:16:24.339Z,46.73
2018-12-10T23:18:53.123Z,51.07
2018-12-10T23:21:21.294Z,47.23
2018-12-10T23:23:50.456Z,50.37
2018-12-10T23:26:19.384Z,49.60
2018-12-10T23:28:48.563Z,56.10
2018-12-10T23:31:16.736Z,53.67
2018-12-10T23:33:45.631Z,49.57
2018-12-10T23:36:13.917Z,49.87
2018-12-10T23:38:42.089Z,50.70
2018-12-10T23:41:10.710Z,50.00
2018-12-10T23:43:39.860Z,51.80
2018-12-10T23:46:08.443Z,54.50
2018-12-10T23:48:36.989Z,47.70
2018-12-10T23:51:05.523Z,45.10
2018-12-10T23:53:34.152Z,48.40
2018-12-10T23:56:02.991Z,45.83
2018-12-10T23:58:32.923Z,47.73
